6NK8 weather

Flying K Airport
Oneida, New York, United States

Public forecast

Using degrees Fahrenheit for public forecast. Weather courtesy of forecast.io.

METAR (pilot weather report)

Closest report is Oswego County Airport, 23.3 nm (43.1 km) NNE. Retrieved 2019/05/22 09:54 UTC (46 minutes ago):

KFZY 220954Z AUTO 00000KT 10SM CLR 04/02 A3023 RMK AO2 SLP239 T00390017 $

TAF (pilot weather forecast)

Closest forecast is Syracuse Hancock International Airport, 24.2 nm (44.8 km) ENE. Retrieved 2019/05/22 06:22 UTC (4 hours ago):

TAF KSYR 220520Z 2206/2306 VRB03KT P6SM SKC FM230000 11005KT P6SM BKN100 FM230500 15007KT P6SM BKN050